Time;durP1;ratioP1;P1;durP2;ratioP2;P2;SDS_P1;SDS_P2;PMS_P1;PMS_P2;Temp;Humidity;BMP_temperature;BMP_pressure;BME280_temperature;BME280_humidity;BME280_pressure;Samples;Min_cycle;Max_cycle;Signal;HPM_P1;HPM_P2
2022/07/15 00:00:48;;;;;;;;;;;;;;;23.74;52.90;96500.41;6153444;28;20020;-66
2022/07/15 00:03:53;;;;;;;;;;;;;;;23.71;54.18;96495.41;6153067;28;19927;-65
2022/07/15 00:06:54;;;;;;;;;;;;;;;23.71;53.10;96503.47;6153338;28;19927;-65
2022/07/15 00:13:16;;;;;;;;;;;;;;;23.73;53.09;96501.44;6153148;28;19926;-65
2022/07/15 00:16:22;;;;;;;;;;;;;;;23.79;52.74;96494.47;6153006;28;20376;-66
2022/07/15 00:19:23;;;;;;;;;;;;;;;23.82;52.75;96487.88;6152789;29;19933;-65
2022/07/15 00:22:24;;;;;;;;;;;;;;;23.87;52.97;96490.84;6152924;28;19926;-65
2022/07/15 00:25:33;;;;;;;;;;;;;;;23.91;52.71;96492.09;6152878;28;19927;-66
2022/07/15 00:28:37;;;;;;;;;;;;;;;23.94;52.59;96480.97;6152255;28;20308;-65
2022/07/15 00:31:38;;;;;;;;;;;;;;;23.98;52.24;96488.47;6152793;28;19927;-65
2022/07/15 00:34:43;;;;;;;;;;;;;;;24.01;52.19;96487.25;6152711;28;19935;-65
2022/07/15 00:37:50;;;;;;;;;;;;;;;24.00;52.38;96474.81;6152767;28;19970;-65
2022/07/15 00:40:56;;;;;;;;;;;;;;;24.01;52.53;96473.81;6152467;28;19926;-65
2022/07/15 00:44:00;;;;;;;;;;;;;;;24.05;52.52;96476.94;6152351;29;19937;-66
2022/07/15 00:47:01;;;;;;;;;;;;;;;24.08;52.00;96493.50;6152254;28;20426;-65
2022/07/15 00:50:03;;;;;;;;;;;;;;;24.07;52.87;96482.94;6151442;28;20032;-65
2022/07/15 00:53:04;;;;;;;;;;;;;;;24.06;52.87;96490.19;6151975;28;19926;-65
2022/07/15 00:56:07;;;;;;;;;;;;;;;24.10;52.89;96480.69;6151674;28;19989;-65
2022/07/15 00:59:10;;;;;;;;;;;;;;;24.18;52.63;96483.25;6152228;28;19930;-65
2022/07/15 01:02:14;;;;;;;;;;;;;;;24.25;52.35;96487.84;6151934;28;19927;-65
2022/07/15 01:05:19;;;;;;;;;;;;;;;24.33;51.83;96480.47;6151439;28;19927;-66
2022/07/15 01:08:21;;;;;;;;;;;;;;;24.40;52.36;96491.25;6151275;28;19926;-65
2022/07/15 01:11:25;;;;;;;;;;;;;;;24.47;51.84;96507.50;6151579;28;20349;-65
2022/07/15 01:14:26;;;;;;;;;;;;;;;24.51;52.01;96514.97;6151645;28;19933;-66
2022/07/15 01:17:32;;;;;;;;;;;;;;;24.53;51.90;96525.53;6151568;28;19926;-64
2022/07/15 01:20:39;;;;;;;;;;;;;;;24.57;51.97;96554.56;6151701;28;19926;-65
2022/07/15 01:23:42;;;;;;;;;;;;;;;24.53;52.69;96547.88;6151885;28;19926;-65
2022/07/15 01:26:47;;;;;;;;;;;;;;;24.50;52.63;96560.91;6151401;29;20013;-66
2022/07/15 01:29:48;;;;;;;;;;;;;;;24.44;52.96;96557.13;6151062;28;19927;-66
2022/07/15 01:32:51;;;;;;;;;;;;;;;24.29;53.07;96549.13;6151387;28;19974;-66
2022/07/15 01:35:55;;;;;;;;;;;;;;;24.20;52.99;96550.25;6151274;28;19927;-65
2022/07/15 01:38:56;;;;;;;;;;;;;;;24.15;53.41;96541.97;6150885;28;19927;-65
2022/07/15 01:42:02;;;;;;;;;;;;;;;24.13;53.12;96539.44;6150915;28;20360;-65
2022/07/15 01:45:08;;;;;;;;;;;;;;;24.14;53.14;96543.78;6150754;28;20385;-66
2022/07/15 01:49:21;;;;;;;;;;;;;;;24.07;53.12;96545.59;6150487;28;19926;-65
2022/07/15 01:51:31;;;;;;;;;;;;;;;23.94;53.52;96535.53;6150644;28;20496;-65
2022/07/15 01:54:35;;;;;;;;;;;;;;;23.98;53.18;96536.00;6150877;28;19926;-65
2022/07/15 01:57:41;;;;;;;;;;;;;;;24.07;52.58;96518.72;6150506;29;20296;-66
2022/07/15 02:00:42;;;;;;;;;;;;;;;24.07;52.91;96497.22;6148412;28;19944;-65
2022/07/15 02:03:48;;;;;;;;;;;;;;;23.98;53.27;96493.84;6150525;28;20313;-65
2022/07/15 02:06:52;;;;;;;;;;;;;;;23.62;54.28;96485.81;6150810;28;19927;-65
2022/07/15 02:09:55;;;;;;;;;;;;;;;23.40;55.25;96500.22;6150341;28;19927;-65
2022/07/15 02:12:56;;;;;;;;;;;;;;;23.47;54.73;96491.22;6150152;28;19933;-65
2022/07/15 02:15:58;;;;;;;;;;;;;;;23.63;54.45;96479.41;6149753;28;19926;-65
2022/07/15 02:19:01;;;;;;;;;;;;;;;23.83;54.59;96478.78;6150422;28;20065;-65
2022/07/15 02:22:05;;;;;;;;;;;;;;;23.92;54.47;96472.25;6149691;28;19926;-65
2022/07/15 02:25:10;;;;;;;;;;;;;;;24.01;54.08;96471.13;6149965;29;19926;-65
2022/07/15 02:28:16;;;;;;;;;;;;;;;24.11;54.36;96476.97;6150036;28;19973;-65
2022/07/15 02:31:20;;;;;;;;;;;;;;;24.12;54.32;96488.59;6149890;28;20029;-64
2022/07/15 02:34:26;;;;;;;;;;;;;;;24.10;54.69;96502.19;6149741;28;20376;-64
2022/07/15 02:37:29;;;;;;;;;;;;;;;24.13;54.84;96517.94;6149708;29;20406;-65
2022/07/15 02:40:31;;;;;;;;;;;;;;;24.09;54.84;96518.50;6149818;29;20455;-65
2022/07/15 02:43:32;;;;;;;;;;;;;;;24.15;55.10;96520.44;6149366;29;19927;-65
2022/07/15 02:46:36;;;;;;;;;;;;;;;24.16;55.09;96528.31;6149693;28;19926;-65
2022/07/15 02:49:37;;;;;;;;;;;;;;;24.12;55.44;96527.03;6149017;28;19926;-64
2022/07/15 02:52:43;;;;;;;;;;;;;;;24.17;55.35;96521.91;6149255;28;19930;-65
2022/07/15 02:55:48;;;;;;;;;;;;;;;24.31;55.22;96522.00;6149477;29;19926;-65
2022/07/15 02:58:56;;;;;;;;;;;;;;;24.48;54.97;96520.72;6149542;28;19922;-65
2022/07/15 03:01:58;;;;;;;;;;;;;;;24.73;54.51;96528.38;6148824;28;20443;-64
2022/07/15 03:05:00;;;;;;;;;;;;;;;25.16;53.33;96507.50;6149258;28;19923;-65
2022/07/15 03:08:03;;;;;;;;;;;;;;;25.59;52.34;96506.44;6149262;29;20401;-66
2022/07/15 03:11:05;;;;;;;;;;;;;;;25.91;52.05;96508.41;6149316;28;19922;-65
2022/07/15 03:14:09;;;;;;;;;;;;;;;26.10;51.75;96514.03;6148925;29;20046;-65
2022/07/15 03:17:15;;;;;;;;;;;;;;;26.30;51.14;96506.81;6149117;28;19927;-64
2022/07/15 03:20:16;;;;;;;;;;;;;;;26.48;50.69;96494.53;6149082;29;19926;-64
2022/07/15 03:23:20;;;;;;;;;;;;;;;26.71;50.57;96476.06;6149066;28;19926;-65
2022/07/15 03:26:23;;;;;;;;;;;;;;;27.01;50.12;96483.69;6148880;28;20392;-65
2022/07/15 03:29:30;;;;;;;;;;;;;;;27.29;49.39;96473.44;6149265;28;20320;-65
2022/07/15 03:32:36;;;;;;;;;;;;;;;27.68;48.57;96458.03;6148861;29;19926;-65
2022/07/15 03:35:41;;;;;;;;;;;;;;;28.01;48.03;96457.00;6148845;28;19933;-65
2022/07/15 03:38:48;;;;;;;;;;;;;;;28.33;47.53;96462.38;6149022;28;19927;-66
2022/07/15 03:41:53;;;;;;;;;;;;;;;28.47;47.16;96458.53;6148750;28;19926;-66
2022/07/15 03:44:58;;;;;;;;;;;;;;;28.48;47.01;96457.50;6148764;29;19927;-65
2022/07/15 03:48:00;;;;;;;;;;;;;;;28.37;46.76;96458.19;6148684;28;20300;-66
2022/07/15 03:51:04;;;;;;;;;;;;;;;28.04;47.42;96466.56;6148685;29;20065;-67
2022/07/15 03:54:06;;;;;;;;;;;;;;;27.81;47.53;96456.34;6148685;28;20412;-65
2022/07/15 03:57:07;;;;;;;;;;;;;;;27.22;48.83;96447.47;6148674;28;19926;-65
2022/07/15 04:00:11;;;;;;;;;;;;;;;26.83;49.50;96444.66;6148523;29;19930;-65
2022/07/15 04:03:12;;;;;;;;;;;;;;;26.61;49.55;96429.78;6148653;29;19926;-66
2022/07/15 04:06:14;;;;;;;;;;;;;;;26.68;49.41;96425.22;6148479;28;19926;-63
2022/07/15 04:09:18;;;;;;;;;;;;;;;26.79;48.97;96416.47;6148885;28;19927;-65
2022/07/15 04:12:22;;;;;;;;;;;;;;;27.07;48.38;96423.41;6147989;28;19933;-65
2022/07/15 04:15:28;;;;;;;;;;;;;;;27.38;47.61;96432.66;6148445;29;19931;-66
2022/07/15 04:18:34;;;;;;;;;;;;;;;27.54;47.48;96446.50;6148312;28;20017;-65
2022/07/15 04:21:35;;;;;;;;;;;;;;;27.50;47.39;96426.34;6148452;28;20352;-65
2022/07/15 04:24:36;;;;;;;;;;;;;;;27.32;47.96;96420.84;6149717;28;19926;-65
2022/07/15 04:27:40;;;;;;;;;;;;;;;27.36;48.12;96415.81;6152674;28;19926;-66
2022/07/15 04:30:43;;;;;;;;;;;;;;;27.37;48.30;96428.28;6152592;28;19926;-66
2022/07/15 04:33:45;;;;;;;;;;;;;;;27.35;48.31;96409.59;6152317;29;20020;-66
2022/07/15 04:36:49;;;;;;;;;;;;;;;27.47;48.38;96407.03;6152583;28;20300;-66
2022/07/15 04:39:52;;;;;;;;;;;;;;;27.52;48.30;96404.50;6152272;28;19922;-65
2022/07/15 04:42:53;;;;;;;;;;;;;;;27.58;47.77;96414.44;6151905;28;20422;-65
2022/07/15 04:45:56;;;;;;;;;;;;;;;27.62;47.84;96404.84;6152311;28;19932;-66
2022/07/15 04:52:19;;;;;;;;;;;;;;;27.91;46.81;96402.59;6152166;28;19934;-66
2022/07/15 04:55:20;;;;;;;;;;;;;;;28.02;46.38;96404.56;6151734;28;20443;-65
2022/07/15 04:58:22;;;;;;;;;;;;;;;28.15;46.09;96409.06;6152167;29;19933;-66
2022/07/15 05:01:28;;;;;;;;;;;;;;;28.33;45.29;96427.19;6151625;28;20024;-65
2022/07/15 05:04:31;;;;;;;;;;;;;;;28.13;45.71;96432.78;6150583;29;19930;-65
2022/07/15 05:07:35;;;;;;;;;;;;;;;28.08;46.17;96424.50;6151882;28;19926;-65
2022/07/15 05:10:36;;;;;;;;;;;;;;;28.16;46.56;96438.56;6151446;29;19927;-66
2022/07/15 05:13:39;;;;;;;;;;;;;;;28.34;46.94;96450.50;6151631;28;19927;-65
2022/07/15 05:16:40;;;;;;;;;;;;;;;28.51;46.73;96454.34;6151361;29;19926;-66
2022/07/15 05:19:47;;;;;;;;;;;;;;;28.64;46.23;96466.91;6151263;28;19927;-64
2022/07/15 05:22:52;;;;;;;;;;;;;;;28.57;46.25;96466.97;6151413;28;20526;-66
2022/07/15 05:25:59;;;;;;;;;;;;;;;28.65;45.82;96463.16;6151397;28;19934;-65
2022/07/15 05:29:02;;;;;;;;;;;;;;;28.74;45.69;96471.81;6151239;29;19927;-66
2022/07/15 05:32:04;;;;;;;;;;;;;;;28.94;45.21;96469.72;6150733;28;19930;-65
2022/07/15 05:35:05;;;;;;;;;;;;;;;29.35;44.33;96461.97;6150628;28;19934;-65
2022/07/15 05:38:09;;;;;;;;;;;;;;;29.88;43.63;96445.81;6150833;28;19922;-65
2022/07/15 05:41:12;;;;;;;;;;;;;;;30.29;42.45;96444.16;6149630;29;20312;-65
2022/07/15 05:44:16;;;;;;;;;;;;;;;30.80;41.43;96445.34;6150462;28;19927;-66
2022/07/15 05:47:23;;;;;;;;;;;;;;;31.88;40.06;96447.50;6150525;29;20396;-65
2022/07/15 05:50:29;;;;;;;;;;;;;;;33.63;38.16;96452.56;6150774;28;19926;-65
2022/07/15 05:53:33;;;;;;;;;;;;;;;35.96;34.88;96450.78;6149630;28;19982;-66
2022/07/15 05:56:34;;;;;;;;;;;;;;;36.18;35.12;96436.88;6150427;28;19926;-65
2022/07/15 05:59:35;;;;;;;;;;;;;;;35.35;36.11;96452.53;6150572;28;19929;-65
2022/07/15 06:02:36;;;;;;;;;;;;;;;34.49;36.80;96442.72;6150496;28;19926;-65
2022/07/15 06:05:42;;;;;;;;;;;;;;;33.96;37.42;96448.78;6149987;28;20356;-66
2022/07/15 06:08:45;;;;;;;;;;;;;;;33.84;37.42;96442.66;6150308;28;19929;-66
2022/07/15 06:11:46;;;;;;;;;;;;;;;33.60;37.26;96436.69;6150273;28;19933;-65
2022/07/15 06:14:50;;;;;;;;;;;;;;;33.08;38.09;96440.69;6149813;28;19927;-64
2022/07/15 06:17:54;;;;;;;;;;;;;;;32.81;37.83;96439.75;6149861;29;20292;-65
2022/07/15 06:21:01;;;;;;;;;;;;;;;32.47;38.84;96444.44;6150054;28;19926;-66
2022/07/15 06:24:05;;;;;;;;;;;;;;;32.27;37.77;96455.78;6150301;28;19927;-67
2022/07/15 06:27:06;;;;;;;;;;;;;;;31.86;36.70;96464.06;6150165;28;20307;-65
2022/07/15 06:30:10;;;;;;;;;;;;;;;31.60;35.12;96462.78;6149784;28;19927;-66
2022/07/15 06:33:11;;;;;;;;;;;;;;;31.15;36.09;96471.63;6149933;28;19927;-65
2022/07/15 06:36:14;;;;;;;;;;;;;;;31.06;36.10;96464.91;6149592;28;20414;-65
2022/07/15 06:39:17;;;;;;;;;;;;;;;31.09;36.80;96464.44;6149742;29;19958;-65
2022/07/15 06:42:19;;;;;;;;;;;;;;;30.92;37.18;96423.59;6149410;29;19962;-65
2022/07/15 06:45:25;;;;;;;;;;;;;;;30.98;37.84;96416.38;6148312;29;19930;-66
2022/07/15 06:48:32;;;;;;;;;;;;;;;30.78;38.70;96416.75;6149199;28;20400;-67
2022/07/15 06:51:33;;;;;;;;;;;;;;;30.62;39.33;96418.28;6149322;28;19927;-66
2022/07/15 06:54:39;;;;;;;;;;;;;;;30.65;39.46;96417.81;6149172;29;19969;-66
2022/07/15 06:57:40;;;;;;;;;;;;;;;30.71;40.04;96411.41;6149615;28;19933;-65
2022/07/15 07:00:41;;;;;;;;;;;;;;;30.70;40.70;96415.22;6149046;28;19927;-65
2022/07/15 07:03:42;;;;;;;;;;;;;;;30.58;41.76;96407.09;6149534;28;19926;-66
2022/07/15 07:06:44;;;;;;;;;;;;;;;30.42;42.87;96403.19;6149614;28;20324;-65
2022/07/15 07:09:49;;;;;;;;;;;;;;;30.35;43.01;96386.22;6148872;28;20006;-66
2022/07/15 07:12:50;;;;;;;;;;;;;;;30.40;42.74;96388.19;6148907;28;20021;-65
2022/07/15 07:15:53;;;;;;;;;;;;;;;30.32;42.99;96389.41;6147940;29;20308;-66
2022/07/15 07:18:55;;;;;;;;;;;;;;;30.17;43.91;96389.81;6148764;28;19930;-66
2022/07/15 07:21:59;;;;;;;;;;;;;;;30.20;43.28;96394.78;6149116;28;19936;-66
2022/07/15 07:25:03;;;;;;;;;;;;;;;30.27;43.19;96391.16;6148908;28;19926;-65
2022/07/15 07:28:06;;;;;;;;;;;;;;;30.30;44.27;96391.50;6148811;29;19926;-65
2022/07/15 07:31:08;;;;;;;;;;;;;;;30.19;44.22;96389.59;6148566;28;19927;-65
2022/07/15 07:34:12;;;;;;;;;;;;;;;29.98;44.41;96396.44;6148629;28;20446;-66
2022/07/15 07:37:16;;;;;;;;;;;;;;;29.97;44.47;96411.84;6148462;28;19926;-65
2022/07/15 07:40:17;;;;;;;;;;;;;;;29.88;44.56;96407.84;6148675;29;20431;-65
2022/07/15 07:43:22;;;;;;;;;;;;;;;29.73;44.99;96372.22;6148564;28;19930;-65
2022/07/15 07:46:23;;;;;;;;;;;;;;;29.67;45.33;96389.41;6148527;28;20323;-66
2022/07/15 07:49:30;;;;;;;;;;;;;;;29.41;45.97;96388.69;6148579;28;20396;-65
2022/07/15 07:52:34;;;;;;;;;;;;;;;29.20;46.62;96400.03;6148478;29;20027;-66
2022/07/15 07:55:38;;;;;;;;;;;;;;;29.11;46.80;96423.91;6148542;29;19926;-65
2022/07/15 07:58:43;;;;;;;;;;;;;;;29.08;47.11;96416.25;6148930;28;19952;-66
2022/07/15 08:01:44;;;;;;;;;;;;;;;29.14;47.35;96398.25;6153120;29;20021;-66
2022/07/15 08:04:48;;;;;;;;;;;;;;;29.05;47.16;96390.44;6153223;29;19933;-66
2022/07/15 08:08:04;;;;;;;;;;;;;;;29.34;46.65;96412.34;6153441;28;20312;-65
2022/07/15 08:11:08;;;;;;;;;;;;;;;29.81;44.60;96382.72;6152790;29;19926;-66
2022/07/15 08:14:11;;;;;;;;;;;;;;;30.18;43.39;96363.53;6152715;28;19927;-66
2022/07/15 08:17:12;;;;;;;;;;;;;;;30.52;42.21;96369.22;6152884;28;19933;-66
2022/07/15 08:20:16;;;;;;;;;;;;;;;30.72;41.29;96369.63;6152697;28;20317;-66
2022/07/15 08:23:23;;;;;;;;;;;;;;;30.85;40.53;96365.84;6152610;29;19934;-66
2022/07/15 08:26:27;;;;;;;;;;;;;;;30.86;40.38;96379.19;6152316;29;19931;-65
2022/07/15 08:29:32;;;;;;;;;;;;;;;30.71;40.01;96384.25;6152478;28;19926;-66
2022/07/15 08:32:36;;;;;;;;;;;;;;;30.68;40.34;96395.59;6152530;28;19926;-65
2022/07/15 08:35:41;;;;;;;;;;;;;;;30.76;39.65;96397.13;6152173;29;20396;-65
2022/07/15 08:38:44;;;;;;;;;;;;;;;30.78;38.65;96400.44;6152853;28;20022;-66
2022/07/15 08:41:50;;;;;;;;;;;;;;;30.62;38.52;96380.28;6152317;29;20304;-65
2022/07/15 08:44:54;;;;;;;;;;;;;;;30.49;38.37;96366.94;6151832;28;19982;-65
2022/07/15 08:47:57;;;;;;;;;;;;;;;30.24;38.63;96361.78;6152411;29;19926;-65
2022/07/15 08:50:59;;;;;;;;;;;;;;;30.31;38.73;96357.06;6152276;28;19926;-66
2022/07/15 08:54:00;;;;;;;;;;;;;;;30.58;38.30;96346.53;6151816;28;20253;-66
2022/07/15 08:57:04;;;;;;;;;;;;;;;30.90;38.16;96346.94;6152060;28;19927;-65
2022/07/15 09:00:10;;;;;;;;;;;;;;;31.27;37.70;96352.81;6152107;28;19926;-66
2022/07/15 09:03:13;;;;;;;;;;;;;;;31.54;37.04;96344.09;6151771;28;19937;-65
2022/07/15 09:06:32;;;;;;;;;;;;;;;31.95;36.29;96333.91;6151699;28;20126;-66
2022/07/15 09:09:38;;;;;;;;;;;;;;;32.23;35.61;96337.59;6150817;28;19927;-66
2022/07/15 09:12:42;;;;;;;;;;;;;;;32.23;35.88;96329.44;6151556;28;19922;-66
2022/07/15 09:15:44;;;;;;;;;;;;;;;32.38;35.97;96314.13;6166288;28;19934;-65
2022/07/15 09:18:50;;;;;;;;;;;;;;;32.65;35.22;96289.72;6151457;28;19926;-65
2022/07/15 09:22:02;;;;;;;;;;;;;;;32.74;35.40;96286.56;6151376;28;19932;-66
2022/07/15 09:25:07;;;;;;;;;;;;;;;32.80;35.44;96272.72;6151010;28;19926;-64
2022/07/15 09:28:11;;;;;;;;;;;;;;;32.81;35.10;96268.09;6151218;29;19933;-65
2022/07/15 09:34:35;;;;;;;;;;;;;;;32.64;35.58;96254.56;6150667;29;20315;-66
2022/07/15 09:37:54;;;;;;;;;;;;;;;32.72;35.21;96272.34;6150965;29;19942;-65
2022/07/15 09:40:55;;;;;;;;;;;;;;;32.78;35.01;96277.63;6150768;28;19934;-66
2022/07/15 09:44:01;;;;;;;;;;;;;;;32.70;34.96;96285.41;6150968;29;19930;-66
2022/07/15 09:47:15;;;;;;;;;;;;;;;32.59;34.49;96289.94;6150911;28;20403;-65
2022/07/15 09:50:32;;;;;;;;;;;;;;;32.18;35.62;96284.72;6150736;28;19950;-65
2022/07/15 09:53:34;;;;;;;;;;;;;;;31.72;35.91;96273.13;6150504;28;20341;-65
2022/07/15 09:56:35;;;;;;;;;;;;;;;31.19;36.51;96260.78;6149592;28;20392;-66
2022/07/15 09:59:36;;;;;;;;;;;;;;;31.07;36.59;96252.72;6150051;29;19922;-66
2022/07/15 10:02:40;;;;;;;;;;;;;;;31.31;35.98;96247.16;6150496;28;19927;-65
2022/07/15 10:05:42;;;;;;;;;;;;;;;31.82;35.30;96241.72;6150068;29;19926;-65
2022/07/15 10:08:46;;;;;;;;;;;;;;;32.56;33.81;96242.22;6149823;29;20372;-66
2022/07/15 10:11:52;;;;;;;;;;;;;;;33.23;33.05;96229.31;6150189;28;20389;-65
2022/07/15 10:15:11;;;;;;;;;;;;;;;33.24;32.73;96230.97;6150184;29;19933;-65
2022/07/15 10:18:33;;;;;;;;;;;;;;;33.09;32.93;96216.13;6150104;28;19926;-66
2022/07/15 10:21:37;;;;;;;;;;;;;;;33.29;32.17;96206.44;6149150;28;19926;-66
2022/07/15 10:24:49;;;;;;;;;;;;;;;33.71;31.97;96202.97;6149901;28;20408;-65
2022/07/15 10:27:59;;;;;;;;;;;;;;;33.89;31.39;96193.56;6149533;28;19969;-65
2022/07/15 10:31:13;;;;;;;;;;;;;;;34.16;31.04;96182.50;6149659;29;20002;-65
2022/07/15 10:34:17;;;;;;;;;;;;;;;35.12;29.74;96178.44;6149269;28;20397;-65
2022/07/15 10:37:20;;;;;;;;;;;;;;;35.44;29.04;96174.59;6149490;28;19931;-65
2022/07/15 10:40:44;;;;;;;;;;;;;;;35.66;28.61;96164.19;6149661;28;19927;-65
2022/07/15 10:43:48;;;;;;;;;;;;;;;35.79;28.27;96153.78;6149478;28;19926;-65
2022/07/15 10:47:08;;;;;;;;;;;;;;;35.90;27.47;96138.97;6149406;28;19965;-65
2022/07/15 10:50:45;;;;;;;;;;;;;;;36.86;25.80;96145.13;6149332;29;20282;-65
2022/07/15 10:53:48;;;;;;;;;;;;;;;38.32;24.36;96140.41;6146183;28;19957;-65
2022/07/15 10:56:52;;;;;;;;;;;;;;;39.62;22.04;96130.75;6149238;28;19926;-65
2022/07/15 10:59:59;;;;;;;;;;;;;;;40.26;21.05;96128.19;6149165;28;19926;-65
2022/07/15 11:03:04;;;;;;;;;;;;;;;40.35;20.28;96108.97;6149019;28;19933;-65
2022/07/15 11:06:06;;;;;;;;;;;;;;;39.98;20.25;96110.81;6148882;28;19926;-65
2022/07/15 11:09:10;;;;;;;;;;;;;;;39.16;20.58;96095.78;6148936;28;20398;-65
2022/07/15 11:12:14;;;;;;;;;;;;;;;38.22;21.51;96088.38;6148994;28;19927;-65
2022/07/15 11:15:18;;;;;;;;;;;;;;;37.11;22.53;96075.53;6148593;29;19930;-66
2022/07/15 11:18:21;;;;;;;;;;;;;;;36.43;22.66;96059.84;6163771;28;20077;-65
2022/07/15 11:21:23;;;;;;;;;;;;;;;36.17;23.02;96062.75;6148830;29;20407;-66
2022/07/15 11:24:27;;;;;;;;;;;;;;;36.00;22.82;96056.78;6148648;29;19926;-66
2022/07/15 11:27:31;;;;;;;;;;;;;;;35.83;22.93;96053.59;6148737;29;19922;-65
2022/07/15 11:30:38;;;;;;;;;;;;;;;35.31;23.31;96040.06;6148071;28;19933;-65
2022/07/15 11:33:41;;;;;;;;;;;;;;;34.62;24.02;96040.63;6150006;28;19926;-65
2022/07/15 11:36:44;;;;;;;;;;;;;;;34.15;24.84;96038.91;6153747;29;19927;-65
2022/07/15 11:39:48;;;;;;;;;;;;;;;33.94;25.06;96033.38;6153530;28;19966;-65
2022/07/15 11:46:11;;;;;;;;;;;;;;;33.22;26.57;96032.19;6153670;29;19933;-65
2022/07/15 11:49:35;;;;;;;;;;;;;;;32.83;27.28;96018.00;6153609;29;19923;-65
2022/07/15 11:52:39;;;;;;;;;;;;;;;32.46;27.44;96009.81;6153208;28;19926;-65
2022/07/15 11:55:49;;;;;;;;;;;;;;;32.49;27.13;95999.22;6152587;28;19948;-65
2022/07/15 11:58:54;;;;;;;;;;;;;;;32.33;27.52;95997.41;6153387;28;19933;-65
2022/07/15 12:02:01;;;;;;;;;;;;;;;31.85;27.60;95974.59;6153271;28;19922;-65
2022/07/15 12:05:06;;;;;;;;;;;;;;;31.85;28.08;95969.16;6152867;29;19934;-65
2022/07/15 12:08:07;;;;;;;;;;;;;;;31.93;27.59;95949.69;6151914;29;19923;-64
2022/07/15 12:11:22;;;;;;;;;;;;;;;32.20;27.58;95944.25;6152512;28;19926;-65
2022/07/15 12:14:23;;;;;;;;;;;;;;;32.79;27.13;95946.06;6152912;29;19927;-66
2022/07/15 12:17:29;;;;;;;;;;;;;;;33.34;26.82;95924.84;6153043;29;20313;-64
2022/07/15 12:20:34;;;;;;;;;;;;;;;34.22;25.74;95919.31;6152723;28;20057;-66
2022/07/15 12:23:37;;;;;;;;;;;;;;;34.86;25.33;95893.31;6152488;28;19926;-65
2022/07/15 12:26:42;;;;;;;;;;;;;;;35.01;25.21;95887.78;6152692;28;19930;-65
2022/07/15 12:29:47;;;;;;;;;;;;;;;34.70;25.37;95898.00;6152377;28;19926;-66
2022/07/15 12:32:51;;;;;;;;;;;;;;;34.02;26.00;95895.53;6152461;29;19942;-65
2022/07/15 12:36:23;;;;;;;;;;;;;;;33.53;26.67;95896.84;6152538;28;19926;-66
2022/07/15 12:39:28;;;;;;;;;;;;;;;32.72;27.70;95891.00;6151567;28;19927;-65
2022/07/15 12:42:32;;;;;;;;;;;;;;;32.47;28.31;95884.31;6151873;28;19923;-66
2022/07/15 12:45:36;;;;;;;;;;;;;;;32.11;28.47;95891.38;6151201;28;20424;-65
2022/07/15 12:48:43;;;;;;;;;;;;;;;31.98;28.59;95903.50;6151825;28;19930;-65
2022/07/15 12:51:46;;;;;;;;;;;;;;;31.93;28.95;95908.88;6151791;28;20397;-65
2022/07/15 12:54:48;;;;;;;;;;;;;;;31.77;29.24;95908.72;6151541;28;19926;-66
2022/07/15 12:57:50;;;;;;;;;;;;;;;31.62;29.64;95899.59;6151435;28;19927;-65
2022/07/15 13:00:51;;;;;;;;;;;;;;;31.56;29.73;95906.88;6151445;28;19922;-65
2022/07/15 13:03:53;;;;;;;;;;;;;;;31.53;29.85;95891.88;6151189;28;20388;-65
2022/07/15 13:06:56;;;;;;;;;;;;;;;31.70;29.57;95889.06;6150851;28;19930;-65
2022/07/15 13:09:59;;;;;;;;;;;;;;;31.65;29.68;95878.16;6151249;29;19981;-66
2022/07/15 13:13:04;;;;;;;;;;;;;;;31.41;30.04;95855.06;6151531;28;19927;-66
2022/07/15 13:16:08;;;;;;;;;;;;;;;31.28;30.49;95843.50;6151729;28;19926;-65
2022/07/15 13:19:09;;;;;;;;;;;;;;;31.28;30.59;95829.91;6151162;28;19970;-65
2022/07/15 13:22:10;;;;;;;;;;;;;;;31.30;30.49;95835.91;6151202;29;19931;-66
2022/07/15 13:25:13;;;;;;;;;;;;;;;31.56;30.49;95846.22;6151518;29;19927;-65
2022/07/15 13:28:14;;;;;;;;;;;;;;;31.26;30.99;95842.94;6151032;28;19933;-64
2022/07/15 13:31:15;;;;;;;;;;;;;;;31.15;31.59;95826.78;6150692;28;20381;-64
2022/07/15 13:34:19;;;;;;;;;;;;;;;31.13;31.20;95832.44;6149770;29;19997;-66
2022/07/15 13:37:20;;;;;;;;;;;;;;;31.18;30.86;95821.63;6150931;28;19930;-65
2022/07/15 13:40:23;;;;;;;;;;;;;;;31.02;30.93;95820.63;6151012;28;19922;-64
2022/07/15 13:43:27;;;;;;;;;;;;;;;31.17;30.47;95806.44;6150307;28;19926;-65
2022/07/15 13:46:33;;;;;;;;;;;;;;;31.54;29.75;95805.72;6150898;29;19930;-65
2022/07/15 13:52:58;;;;;;;;;;;;;;;31.55;28.89;95815.50;6150706;28;19977;-65
2022/07/15 13:56:02;;;;;;;;;;;;;;;31.73;28.42;95853.22;6150703;28;19934;-65
2022/07/15 13:59:08;;;;;;;;;;;;;;;31.88;29.56;95866.13;6150899;28;19934;-65
2022/07/15 14:02:13;;;;;;;;;;;;;;;31.84;31.05;95875.88;6150039;28;19926;-65
2022/07/15 14:05:18;;;;;;;;;;;;;;;31.56;32.61;95871.53;6150470;29;19934;-64
2022/07/15 14:08:21;;;;;;;;;;;;;;;31.35;33.25;95883.25;6150613;28;19926;-64
2022/07/15 14:11:25;;;;;;;;;;;;;;;31.24;34.08;95904.88;6150154;29;19926;-66
2022/07/15 14:14:28;;;;;;;;;;;;;;;31.09;35.18;95901.97;6149779;28;19926;-65
2022/07/15 14:17:29;;;;;;;;;;;;;;;30.85;36.20;95913.06;6150134;28;19933;-65
2022/07/15 14:20:33;;;;;;;;;;;;;;;30.65;39.02;95931.75;6148683;28;19926;-65
2022/07/15 14:23:35;;;;;;;;;;;;;;;30.02;39.51;95935.63;6149305;28;19926;-65
2022/07/15 14:26:36;;;;;;;;;;;;;;;29.70;39.88;95936.97;6149305;28;19922;-65
2022/07/15 14:29:40;;;;;;;;;;;;;;;29.58;40.07;95943.47;6148782;28;19927;-65
2022/07/15 14:32:43;;;;;;;;;;;;;;;29.57;40.10;95956.19;6149502;28;19922;-65
2022/07/15 14:35:45;;;;;;;;;;;;;;;29.64;39.50;95956.06;6149205;28;19927;-65
2022/07/15 14:38:46;;;;;;;;;;;;;;;29.68;39.48;95951.84;6148741;28;19934;-65
2022/07/15 14:41:52;;;;;;;;;;;;;;;29.40;40.86;95958.84;6149316;28;20397;-65
2022/07/15 14:44:53;;;;;;;;;;;;;;;28.94;43.30;95979.53;6148972;29;19930;-65
2022/07/15 14:47:54;;;;;;;;;;;;;;;28.55;44.10;95959.41;6149114;29;19933;-65
2022/07/15 14:50:57;;;;;;;;;;;;;;;28.34;44.57;95960.81;6148834;28;20404;-65
2022/07/15 14:53:58;;;;;;;;;;;;;;;28.21;44.56;95962.66;6149069;29;19937;-66
2022/07/15 14:57:02;;;;;;;;;;;;;;;28.35;44.27;95965.16;6148638;29;19927;-66
2022/07/15 15:00:06;;;;;;;;;;;;;;;28.53;43.38;95970.47;6148902;28;19927;-66
2022/07/15 15:03:07;;;;;;;;;;;;;;;28.58;43.48;95961.66;6148821;28;19932;-65
2022/07/15 15:06:11;;;;;;;;;;;;;;;28.61;42.95;95970.13;6148900;29;20320;-65
2022/07/15 15:09:14;;;;;;;;;;;;;;;28.61;43.18;95972.81;6148546;28;20312;-66
2022/07/15 15:12:17;;;;;;;;;;;;;;;28.62;43.52;95977.19;6148353;28;20028;-65
2022/07/15 15:15:23;;;;;;;;;;;;;;;28.59;42.95;95972.25;6147553;29;19927;-65
2022/07/15 15:18:29;;;;;;;;;;;;;;;28.45;42.91;95973.56;6147880;29;20025;-65
2022/07/15 15:21:33;;;;;;;;;;;;;;;28.32;43.04;95977.25;6149176;28;19926;-66
2022/07/15 15:24:36;;;;;;;;;;;;;;;28.16;42.80;95972.50;6148817;29;19926;-65
2022/07/15 15:27:37;;;;;;;;;;;;;;;28.01;42.77;95974.84;6148723;28;20031;-64
2022/07/15 15:30:41;;;;;;;;;;;;;;;27.88;42.42;95970.44;6148802;28;19926;-65
2022/07/15 15:33:45;;;;;;;;;;;;;;;27.67;42.41;95967.19;6148861;28;19930;-65
2022/07/15 15:36:49;;;;;;;;;;;;;;;27.35;42.59;95965.75;6147374;28;19930;-65
2022/07/15 15:39:52;;;;;;;;;;;;;;;27.01;43.22;95971.50;6148898;28;19926;-65
2022/07/15 15:42:54;;;;;;;;;;;;;;;26.91;43.49;95970.38;6147730;28;19926;-65
2022/07/15 15:46:00;;;;;;;;;;;;;;;26.95;43.07;95985.06;6148422;28;20377;-64
2022/07/15 15:49:04;;;;;;;;;;;;;;;26.97;43.19;96001.88;6148697;28;19927;-64
2022/07/15 15:52:07;;;;;;;;;;;;;;;26.91;43.01;95994.66;6147458;29;19927;-66
2022/07/15 15:55:11;;;;;;;;;;;;;;;26.98;43.19;96003.53;6148450;28;19926;-65
2022/07/15 15:58:14;;;;;;;;;;;;;;;26.84;43.52;96009.06;6148366;28;20366;-65
2022/07/15 16:01:15;;;;;;;;;;;;;;;26.63;43.90;96006.75;6148480;29;20384;-65
2022/07/15 16:04:20;;;;;;;;;;;;;;;26.49;44.09;96016.00;6148356;28;19934;-65
2022/07/15 16:07:23;;;;;;;;;;;;;;;26.42;44.36;96021.44;6148018;29;20336;-65
2022/07/15 16:10:27;;;;;;;;;;;;;;;26.15;44.57;96021.63;6148369;28;20328;-65
2022/07/15 16:13:28;;;;;;;;;;;;;;;25.98;45.13;96037.50;6148298;28;19934;-66
2022/07/15 16:16:31;;;;;;;;;;;;;;;25.88;45.53;96033.66;6148036;28;19949;-66